sensor_id;sensor_type;location;lat;lon;timestamp;P1;durP1;ratioP1;P2;durP2;ratioP2
53505;SDS011;39388;50.936;6.848;2022-12-29T00:01:11;0.88;;;0.88;;
53505;SDS011;39388;50.936;6.848;2022-12-29T00:03:42;0.80;;;0.80;;
53505;SDS011;39388;50.936;6.848;2022-12-29T00:06:16;0.70;;;0.70;;
53505;SDS011;39388;50.936;6.848;2022-12-29T00:08:46;0.80;;;0.80;;
53505;SDS011;39388;50.936;6.848;2022-12-29T00:11:20;0.70;;;0.70;;
53505;SDS011;39388;50.936;6.848;2022-12-29T00:13:53;0.82;;;0.82;;
53505;SDS011;39388;50.936;6.848;2022-12-29T00:16:43;0.90;;;0.90;;
53505;SDS011;39388;50.936;6.848;2022-12-29T00:19:14;0.88;;;0.88;;
53505;SDS011;39388;50.936;6.848;2022-12-29T00:22:03;1.10;;;1.05;;
53505;SDS011;39388;50.936;6.848;2022-12-29T00:24:52;0.90;;;0.90;;
53505;SDS011;39388;50.936;6.848;2022-12-29T00:27:31;0.73;;;0.73;;
53505;SDS011;39388;50.936;6.848;2022-12-29T00:30:21;1.38;;;0.85;;
53505;SDS011;39388;50.936;6.848;2022-12-29T00:33:16;0.70;;;0.70;;
53505;SDS011;39388;50.936;6.848;2022-12-29T00:36:07;0.70;;;0.70;;
53505;SDS011;39388;50.936;6.848;2022-12-29T00:38:43;0.80;;;0.80;;
53505;SDS011;39388;50.936;6.848;2022-12-29T00:41:40;0.82;;;0.82;;
53505;SDS011;39388;50.936;6.848;2022-12-29T00:44:28;0.65;;;0.65;;
53505;SDS011;39388;50.936;6.848;2022-12-29T00:46:59;0.60;;;0.60;;
53505;SDS011;39388;50.936;6.848;2022-12-29T00:49:34;0.60;;;0.60;;
53505;SDS011;39388;50.936;6.848;2022-12-29T00:52:05;0.70;;;0.70;;
53505;SDS011;39388;50.936;6.848;2022-12-29T00:54:37;0.85;;;0.85;;
53505;SDS011;39388;50.936;6.848;2022-12-29T00:57:09;0.60;;;0.60;;
53505;SDS011;39388;50.936;6.848;2022-12-29T00:59:40;0.80;;;0.80;;
53505;SDS011;39388;50.936;6.848;2022-12-29T01:02:12;0.70;;;0.70;;
53505;SDS011;39388;50.936;6.848;2022-12-29T01:04:42;0.60;;;0.60;;
53505;SDS011;39388;50.936;6.848;2022-12-29T01:07:12;0.73;;;0.70;;
53505;SDS011;39388;50.936;6.848;2022-12-29T01:09:43;0.75;;;0.60;;
53505;SDS011;39388;50.936;6.848;2022-12-29T01:12:33;1.80;;;1.40;;
53505;SDS011;39388;50.936;6.848;2022-12-29T01:15:14;1.70;;;1.00;;
53505;SDS011;39388;50.936;6.848;2022-12-29T01:17:45;0.70;;;0.70;;
53505;SDS011;39388;50.936;6.848;2022-12-29T01:20:15;0.75;;;0.70;;
53505;SDS011;39388;50.936;6.848;2022-12-29T01:22:46;0.60;;;0.60;;
53505;SDS011;39388;50.936;6.848;2022-12-29T01:25:17;0.57;;;0.57;;
53505;SDS011;39388;50.936;6.848;2022-12-29T01:27:47;0.65;;;0.65;;
53505;SDS011;39388;50.936;6.848;2022-12-29T01:30:17;0.70;;;0.70;;
53505;SDS011;39388;50.936;6.848;2022-12-29T01:32:48;0.57;;;0.57;;
53505;SDS011;39388;50.936;6.848;2022-12-29T01:35:18;0.60;;;0.60;;
53505;SDS011;39388;50.936;6.848;2022-12-29T01:37:49;0.50;;;0.50;;
53505;SDS011;39388;50.936;6.848;2022-12-29T01:40:19;0.60;;;0.60;;
53505;SDS011;39388;50.936;6.848;2022-12-29T01:42:50;0.65;;;0.65;;
53505;SDS011;39388;50.936;6.848;2022-12-29T01:45:20;0.80;;;0.80;;
53505;SDS011;39388;50.936;6.848;2022-12-29T01:47:57;1.00;;;0.98;;
53505;SDS011;39388;50.936;6.848;2022-12-29T01:50:36;0.75;;;0.75;;
53505;SDS011;39388;50.936;6.848;2022-12-29T01:53:13;0.70;;;0.70;;
53505;SDS011;39388;50.936;6.848;2022-12-29T01:55:53;1.02;;;0.90;;
53505;SDS011;39388;50.936;6.848;2022-12-29T01:58:29;0.90;;;0.90;;
53505;SDS011;39388;50.936;6.848;2022-12-29T02:01:02;1.00;;;1.00;;
53505;SDS011;39388;50.936;6.848;2022-12-29T02:03:34;1.17;;;0.90;;
53505;SDS011;39388;50.936;6.848;2022-12-29T02:06:14;0.83;;;0.83;;
53505;SDS011;39388;50.936;6.848;2022-12-29T02:08:49;0.65;;;0.65;;
53505;SDS011;39388;50.936;6.848;2022-12-29T02:11:23;1.55;;;1.00;;
53505;SDS011;39388;50.936;6.848;2022-12-29T02:13:56;1.17;;;0.90;;
53505;SDS011;39388;50.936;6.848;2022-12-29T02:16:32;1.40;;;0.90;;
53505;SDS011;39388;50.936;6.848;2022-12-29T02:27:26;1.85;;;0.90;;
53505;SDS011;39388;50.936;6.848;2022-12-29T02:33:12;1.10;;;1.05;;
53505;SDS011;39388;50.936;6.848;2022-12-29T02:36:05;0.85;;;0.77;;
53505;SDS011;39388;50.936;6.848;2022-12-29T02:44:50;1.85;;;1.00;;
53505;SDS011;39388;50.936;6.848;2022-12-29T02:52:50;1.13;;;0.90;;
53505;SDS011;39388;50.936;6.848;2022-12-29T02:55:24;1.20;;;0.90;;
53505;SDS011;39388;50.936;6.848;2022-12-29T03:00:49;1.65;;;1.00;;
53505;SDS011;39388;50.936;6.848;2022-12-29T03:14:48;0.90;;;0.90;;
53505;SDS011;39388;50.936;6.848;2022-12-29T03:23:46;1.00;;;1.00;;
53505;SDS011;39388;50.936;6.848;2022-12-29T03:26:19;0.80;;;0.80;;
53505;SDS011;39388;50.936;6.848;2022-12-29T03:28:51;0.90;;;0.90;;
53505;SDS011;39388;50.936;6.848;2022-12-29T03:33:54;0.77;;;0.77;;
53505;SDS011;39388;50.936;6.848;2022-12-29T03:36:28;0.90;;;0.90;;
53505;SDS011;39388;50.936;6.848;2022-12-29T03:39:08;0.70;;;0.70;;
53505;SDS011;39388;50.936;6.848;2022-12-29T03:41:42;0.70;;;0.70;;
53505;SDS011;39388;50.936;6.848;2022-12-29T03:44:14;0.70;;;0.70;;
53505;SDS011;39388;50.936;6.848;2022-12-29T03:46:45;0.82;;;0.75;;
53505;SDS011;39388;50.936;6.848;2022-12-29T03:49:15;0.80;;;0.80;;
53505;SDS011;39388;50.936;6.848;2022-12-29T03:51:45;1.08;;;0.80;;
53505;SDS011;39388;50.936;6.848;2022-12-29T03:54:16;0.77;;;0.77;;
53505;SDS011;39388;50.936;6.848;2022-12-29T03:56:46;0.73;;;0.73;;
53505;SDS011;39388;50.936;6.848;2022-12-29T03:59:16;0.98;;;0.90;;
53505;SDS011;39388;50.936;6.848;2022-12-29T04:01:47;1.10;;;1.00;;
53505;SDS011;39388;50.936;6.848;2022-12-29T04:04:17;0.80;;;0.80;;
53505;SDS011;39388;50.936;6.848;2022-12-29T04:06:48;0.98;;;0.93;;
53505;SDS011;39388;50.936;6.848;2022-12-29T04:09:18;1.35;;;0.77;;
53505;SDS011;39388;50.936;6.848;2022-12-29T04:11:48;0.90;;;0.90;;
53505;SDS011;39388;50.936;6.848;2022-12-29T04:14:19;1.67;;;0.90;;
53505;SDS011;39388;50.936;6.848;2022-12-29T04:16:49;0.80;;;0.80;;
53505;SDS011;39388;50.936;6.848;2022-12-29T04:19:19;0.75;;;0.75;;
53505;SDS011;39388;50.936;6.848;2022-12-29T04:21:50;0.80;;;0.80;;
53505;SDS011;39388;50.936;6.848;2022-12-29T04:24:20;0.82;;;0.82;;
53505;SDS011;39388;50.936;6.848;2022-12-29T04:26:50;0.80;;;0.80;;
53505;SDS011;39388;50.936;6.848;2022-12-29T04:29:21;1.25;;;1.10;;
53505;SDS011;39388;50.936;6.848;2022-12-29T04:31:51;0.77;;;0.77;;
53505;SDS011;39388;50.936;6.848;2022-12-29T04:34:22;0.80;;;0.80;;
53505;SDS011;39388;50.936;6.848;2022-12-29T04:36:52;0.80;;;0.80;;
53505;SDS011;39388;50.936;6.848;2022-12-29T04:39:22;1.00;;;0.93;;
53505;SDS011;39388;50.936;6.848;2022-12-29T04:41:53;1.42;;;1.10;;
53505;SDS011;39388;50.936;6.848;2022-12-29T04:44:23;1.00;;;1.00;;
53505;SDS011;39388;50.936;6.848;2022-12-29T04:46:53;1.88;;;0.90;;
53505;SDS011;39388;50.936;6.848;2022-12-29T04:49:24;1.60;;;0.80;;
53505;SDS011;39388;50.936;6.848;2022-12-29T04:51:54;0.70;;;0.70;;
53505;SDS011;39388;50.936;6.848;2022-12-29T04:54:24;0.88;;;0.88;;
53505;SDS011;39388;50.936;6.848;2022-12-29T04:56:55;0.80;;;0.80;;
53505;SDS011;39388;50.936;6.848;2022-12-29T04:59:25;0.80;;;0.80;;
53505;SDS011;39388;50.936;6.848;2022-12-29T05:01:56;2.55;;;1.13;;
53505;SDS011;39388;50.936;6.848;2022-12-29T05:04:26;0.80;;;0.80;;
53505;SDS011;39388;50.936;6.848;2022-12-29T05:06:56;0.80;;;0.80;;
53505;SDS011;39388;50.936;6.848;2022-12-29T05:09:27;0.82;;;0.82;;
53505;SDS011;39388;50.936;6.848;2022-12-29T05:11:57;0.80;;;0.80;;
53505;SDS011;39388;50.936;6.848;2022-12-29T05:14:27;0.95;;;0.90;;
53505;SDS011;39388;50.936;6.848;2022-12-29T05:16:58;1.05;;;0.95;;
53505;SDS011;39388;50.936;6.848;2022-12-29T05:19:28;1.15;;;1.05;;
53505;SDS011;39388;50.936;6.848;2022-12-29T05:21:58;0.82;;;0.82;;
53505;SDS011;39388;50.936;6.848;2022-12-29T05:24:29;1.08;;;0.98;;
53505;SDS011;39388;50.936;6.848;2022-12-29T05:26:59;1.88;;;0.90;;
53505;SDS011;39388;50.936;6.848;2022-12-29T05:29:30;1.40;;;0.85;;
53505;SDS011;39388;50.936;6.848;2022-12-29T05:32:00;2.28;;;0.85;;
53505;SDS011;39388;50.936;6.848;2022-12-29T05:34:31;2.20;;;0.90;;
53505;SDS011;39388;50.936;6.848;2022-12-29T05:37:01;0.70;;;0.70;;
53505;SDS011;39388;50.936;6.848;2022-12-29T05:39:32;2.92;;;0.82;;
53505;SDS011;39388;50.936;6.848;2022-12-29T05:42:03;0.80;;;0.80;;
53505;SDS011;39388;50.936;6.848;2022-12-29T05:44:33;1.13;;;0.80;;
53505;SDS011;39388;50.936;6.848;2022-12-29T05:47:03;0.80;;;0.80;;
53505;SDS011;39388;50.936;6.848;2022-12-29T05:49:34;1.08;;;0.90;;
53505;SDS011;39388;50.936;6.848;2022-12-29T05:52:04;1.48;;;0.90;;
53505;SDS011;39388;50.936;6.848;2022-12-29T05:54:35;1.05;;;0.90;;
53505;SDS011;39388;50.936;6.848;2022-12-29T05:57:05;1.30;;;0.80;;
53505;SDS011;39388;50.936;6.848;2022-12-29T05:59:35;1.00;;;0.90;;
53505;SDS011;39388;50.936;6.848;2022-12-29T06:02:06;1.83;;;1.00;;
53505;SDS011;39388;50.936;6.848;2022-12-29T06:04:36;2.92;;;0.93;;
53505;SDS011;39388;50.936;6.848;2022-12-29T06:07:06;1.20;;;0.95;;
53505;SDS011;39388;50.936;6.848;2022-12-29T06:09:37;2.13;;;1.08;;
53505;SDS011;39388;50.936;6.848;2022-12-29T06:12:07;2.25;;;0.80;;
53505;SDS011;39388;50.936;6.848;2022-12-29T06:14:37;1.20;;;0.90;;
53505;SDS011;39388;50.936;6.848;2022-12-29T06:17:08;1.75;;;1.27;;
53505;SDS011;39388;50.936;6.848;2022-12-29T06:19:39;1.30;;;1.10;;
53505;SDS011;39388;50.936;6.848;2022-12-29T06:22:10;0.80;;;0.80;;
53505;SDS011;39388;50.936;6.848;2022-12-29T06:24:42;1.50;;;1.02;;
53505;SDS011;39388;50.936;6.848;2022-12-29T06:27:12;0.90;;;0.90;;
53505;SDS011;39388;50.936;6.848;2022-12-29T06:29:43;0.80;;;0.80;;
53505;SDS011;39388;50.936;6.848;2022-12-29T06:32:14;1.20;;;0.80;;
53505;SDS011;39388;50.936;6.848;2022-12-29T06:34:44;1.33;;;0.88;;
53505;SDS011;39388;50.936;6.848;2022-12-29T06:37:15;0.73;;;0.73;;
53505;SDS011;39388;50.936;6.848;2022-12-29T06:39:45;0.80;;;0.80;;
53505;SDS011;39388;50.936;6.848;2022-12-29T06:42:15;0.85;;;0.70;;
53505;SDS011;39388;50.936;6.848;2022-12-29T06:44:46;1.92;;;1.02;;
53505;SDS011;39388;50.936;6.848;2022-12-29T06:47:16;2.25;;;0.80;;
53505;SDS011;39388;50.936;6.848;2022-12-29T06:49:46;0.93;;;0.77;;
53505;SDS011;39388;50.936;6.848;2022-12-29T06:52:17;2.35;;;1.20;;
53505;SDS011;39388;50.936;6.848;2022-12-29T06:54:47;2.60;;;1.38;;
53505;SDS011;39388;50.936;6.848;2022-12-29T06:57:18;1.40;;;0.90;;
53505;SDS011;39388;50.936;6.848;2022-12-29T06:59:48;1.58;;;1.10;;
53505;SDS011;39388;50.936;6.848;2022-12-29T07:02:18;0.75;;;0.70;;
53505;SDS011;39388;50.936;6.848;2022-12-29T07:04:49;1.13;;;1.02;;
53505;SDS011;39388;50.936;6.848;2022-12-29T07:07:20;1.50;;;1.10;;
53505;SDS011;39388;50.936;6.848;2022-12-29T07:09:50;1.10;;;1.00;;
53505;SDS011;39388;50.936;6.848;2022-12-29T07:12:21;1.00;;;0.90;;
53505;SDS011;39388;50.936;6.848;2022-12-29T07:14:51;0.73;;;0.70;;
53505;SDS011;39388;50.936;6.848;2022-12-29T07:17:21;2.10;;;0.90;;
53505;SDS011;39388;50.936;6.848;2022-12-29T07:19:52;1.02;;;0.90;;
53505;SDS011;39388;50.936;6.848;2022-12-29T07:22:22;0.98;;;0.90;;
53505;SDS011;39388;50.936;6.848;2022-12-29T07:24:52;1.00;;;0.90;;
53505;SDS011;39388;50.936;6.848;2022-12-29T07:27:23;3.28;;;1.02;;
53505;SDS011;39388;50.936;6.848;2022-12-29T07:29:53;1.73;;;0.77;;
53505;SDS011;39388;50.936;6.848;2022-12-29T07:32:23;0.70;;;0.70;;
53505;SDS011;39388;50.936;6.848;2022-12-29T07:34:54;0.82;;;0.82;;
53505;SDS011;39388;50.936;6.848;2022-12-29T07:37:24;2.85;;;0.90;;
53505;SDS011;39388;50.936;6.848;2022-12-29T07:39:54;0.90;;;0.90;;
53505;SDS011;39388;50.936;6.848;2022-12-29T07:42:25;3.28;;;0.90;;
53505;SDS011;39388;50.936;6.848;2022-12-29T07:44:55;1.70;;;0.90;;
53505;SDS011;39388;50.936;6.848;2022-12-29T07:47:26;2.83;;;1.10;;
53505;SDS011;39388;50.936;6.848;2022-12-29T07:49:56;2.15;;;1.25;;
53505;SDS011;39388;50.936;6.848;2022-12-29T07:52:26;1.77;;;1.00;;
53505;SDS011;39388;50.936;6.848;2022-12-29T07:54:57;1.83;;;0.85;;
53505;SDS011;39388;50.936;6.848;2022-12-29T07:57:27;1.20;;;0.90;;
53505;SDS011;39388;50.936;6.848;2022-12-29T07:59:58;1.80;;;1.00;;
53505;SDS011;39388;50.936;6.848;2022-12-29T08:02:28;1.02;;;1.00;;
53505;SDS011;39388;50.936;6.848;2022-12-29T08:04:59;1.60;;;0.90;;
53505;SDS011;39388;50.936;6.848;2022-12-29T08:07:29;2.53;;;1.00;;
53505;SDS011;39388;50.936;6.848;2022-12-29T08:10:00;2.53;;;1.25;;
53505;SDS011;39388;50.936;6.848;2022-12-29T08:12:31;1.92;;;1.10;;
53505;SDS011;39388;50.936;6.848;2022-12-29T08:15:01;1.15;;;1.00;;
53505;SDS011;39388;50.936;6.848;2022-12-29T08:17:32;2.30;;;1.10;;
53505;SDS011;39388;50.936;6.848;2022-12-29T08:20:02;2.58;;;1.38;;
53505;SDS011;39388;50.936;6.848;2022-12-29T08:22:33;3.63;;;1.27;;
53505;SDS011;39388;50.936;6.848;2022-12-29T08:25:04;2.28;;;1.00;;
53505;SDS011;39388;50.936;6.848;2022-12-29T08:27:35;2.05;;;1.20;;
53505;SDS011;39388;50.936;6.848;2022-12-29T08:30:05;2.47;;;0.98;;
53505;SDS011;39388;50.936;6.848;2022-12-29T08:32:36;2.00;;;0.80;;
53505;SDS011;39388;50.936;6.848;2022-12-29T08:35:07;2.70;;;1.27;;
53505;SDS011;39388;50.936;6.848;2022-12-29T08:37:37;2.67;;;1.05;;
53505;SDS011;39388;50.936;6.848;2022-12-29T08:40:08;2.03;;;1.20;;
53505;SDS011;39388;50.936;6.848;2022-12-29T08:42:39;2.38;;;1.08;;
53505;SDS011;39388;50.936;6.848;2022-12-29T08:45:10;1.98;;;1.30;;
53505;SDS011;39388;50.936;6.848;2022-12-29T08:47:40;2.20;;;1.38;;
53505;SDS011;39388;50.936;6.848;2022-12-29T08:50:10;2.55;;;1.20;;
53505;SDS011;39388;50.936;6.848;2022-12-29T08:52:41;2.88;;;1.10;;
53505;SDS011;39388;50.936;6.848;2022-12-29T08:55:11;2.45;;;1.20;;
53505;SDS011;39388;50.936;6.848;2022-12-29T08:57:41;2.55;;;1.23;;
53505;SDS011;39388;50.936;6.848;2022-12-29T09:00:12;1.65;;;1.10;;
53505;SDS011;39388;50.936;6.848;2022-12-29T09:05:15;1.83;;;1.10;;
53505;SDS011;39388;50.936;6.848;2022-12-29T09:07:45;3.78;;;1.20;;
53505;SDS011;39388;50.936;6.848;2022-12-29T09:10:16;2.05;;;1.20;;
53505;SDS011;39388;50.936;6.848;2022-12-29T09:12:46;2.80;;;1.25;;
53505;SDS011;39388;50.936;6.848;2022-12-29T09:15:16;3.42;;;1.10;;
53505;SDS011;39388;50.936;6.848;2022-12-29T09:17:47;2.38;;;1.30;;
53505;SDS011;39388;50.936;6.848;2022-12-29T09:20:18;2.67;;;1.10;;
53505;SDS011;39388;50.936;6.848;2022-12-29T09:22:49;2.95;;;1.40;;
53505;SDS011;39388;50.936;6.848;2022-12-29T09:25:19;2.90;;;1.30;;
53505;SDS011;39388;50.936;6.848;2022-12-29T09:27:51;2.70;;;1.38;;
53505;SDS011;39388;50.936;6.848;2022-12-29T09:30:23;3.60;;;1.27;;
53505;SDS011;39388;50.936;6.848;2022-12-29T09:32:53;1.85;;;1.10;;
53505;SDS011;39388;50.936;6.848;2022-12-29T09:35:24;3.33;;;1.38;;
53505;SDS011;39388;50.936;6.848;2022-12-29T09:37:54;3.45;;;1.20;;
53505;SDS011;39388;50.936;6.848;2022-12-29T09:40:26;3.13;;;1.27;;
53505;SDS011;39388;50.936;6.848;2022-12-29T09:45:43;2.40;;;1.17;;
53505;SDS011;39388;50.936;6.848;2022-12-29T09:48:22;4.95;;;1.40;;
53505;SDS011;39388;50.936;6.848;2022-12-29T09:50:58;1.98;;;1.10;;
53505;SDS011;39388;50.936;6.848;2022-12-29T09:53:45;4.70;;;1.58;;
53505;SDS011;39388;50.936;6.848;2022-12-29T09:56:20;7.38;;;1.75;;
53505;SDS011;39388;50.936;6.848;2022-12-29T10:01:46;3.10;;;1.27;;
53505;SDS011;39388;50.936;6.848;2022-12-29T10:04:25;3.70;;;1.27;;
53505;SDS011;39388;50.936;6.848;2022-12-29T10:07:00;2.67;;;1.40;;
53505;SDS011;39388;50.936;6.848;2022-12-29T10:13:20;3.67;;;1.38;;
53505;SDS011;39388;50.936;6.848;2022-12-29T10:15:29;1.77;;;1.35;;
53505;SDS011;39388;50.936;6.848;2022-12-29T10:20:54;4.22;;;1.30;;
53505;SDS011;39388;50.936;6.848;2022-12-29T10:26:01;3.60;;;1.45;;
53505;SDS011;39388;50.936;6.848;2022-12-29T10:28:40;4.25;;;1.20;;
53505;SDS011;39388;50.936;6.848;2022-12-29T10:31:25;3.95;;;1.60;;
53505;SDS011;39388;50.936;6.848;2022-12-29T10:34:06;2.95;;;1.30;;
53505;SDS011;39388;50.936;6.848;2022-12-29T10:36:46;1.73;;;1.20;;
53505;SDS011;39388;50.936;6.848;2022-12-29T10:39:21;4.57;;;1.25;;
53505;SDS011;39388;50.936;6.848;2022-12-29T10:42:12;6.28;;;1.60;;
53505;SDS011;39388;50.936;6.848;2022-12-29T10:44:48;2.40;;;1.20;;
53505;SDS011;39388;50.936;6.848;2022-12-29T10:47:19;1.95;;;1.30;;
53505;SDS011;39388;50.936;6.848;2022-12-29T10:49:53;3.17;;;1.20;;
53505;SDS011;39388;50.936;6.848;2022-12-29T10:52:24;2.78;;;1.52;;
53505;SDS011;39388;50.936;6.848;2022-12-29T10:55:02;3.38;;;1.30;;
53505;SDS011;39388;50.936;6.848;2022-12-29T10:57:39;3.85;;;1.20;;
53505;SDS011;39388;50.936;6.848;2022-12-29T11:00:18;2.58;;;1.20;;
53505;SDS011;39388;50.936;6.848;2022-12-29T11:02:58;2.05;;;1.00;;
53505;SDS011;39388;50.936;6.848;2022-12-29T11:08:32;3.72;;;1.25;;
53505;SDS011;39388;50.936;6.848;2022-12-29T11:11:09;5.57;;;1.23;;
53505;SDS011;39388;50.936;6.848;2022-12-29T11:13:59;2.95;;;1.30;;
53505;SDS011;39388;50.936;6.848;2022-12-29T11:16:38;3.35;;;1.30;;
53505;SDS011;39388;50.936;6.848;2022-12-29T11:19:19;3.47;;;1.25;;
53505;SDS011;39388;50.936;6.848;2022-12-29T11:21:54;3.15;;;1.20;;
53505;SDS011;39388;50.936;6.848;2022-12-29T11:24:26;3.25;;;1.30;;
53505;SDS011;39388;50.936;6.848;2022-12-29T11:27:09;2.85;;;1.30;;
53505;SDS011;39388;50.936;6.848;2022-12-29T11:29:45;4.15;;;1.50;;
53505;SDS011;39388;50.936;6.848;2022-12-29T11:34:51;4.00;;;1.40;;
53505;SDS011;39388;50.936;6.848;2022-12-29T11:37:37;1.92;;;1.10;;
53505;SDS011;39388;50.936;6.848;2022-12-29T11:40:16;2.28;;;1.20;;
53505;SDS011;39388;50.936;6.848;2022-12-29T11:42:51;2.95;;;1.40;;
53505;SDS011;39388;50.936;6.848;2022-12-29T11:45:24;4.05;;;1.13;;
53505;SDS011;39388;50.936;6.848;2022-12-29T11:47:57;3.13;;;1.10;;
53505;SDS011;39388;50.936;6.848;2022-12-29T11:50:31;3.92;;;1.55;;
53505;SDS011;39388;50.936;6.848;2022-12-29T11:55:58;3.53;;;1.42;;
53505;SDS011;39388;50.936;6.848;2022-12-29T11:58:33;1.95;;;1.15;;
53505;SDS011;39388;50.936;6.848;2022-12-29T12:01:07;4.13;;;1.30;;
53505;SDS011;39388;50.936;6.848;2022-12-29T12:03:52;4.75;;;1.60;;
53505;SDS011;39388;50.936;6.848;2022-12-29T12:06:34;3.70;;;1.25;;
53505;SDS011;39388;50.936;6.848;2022-12-29T12:09:16;5.43;;;1.58;;
53505;SDS011;39388;50.936;6.848;2022-12-29T12:11:52;4.15;;;1.15;;
53505;SDS011;39388;50.936;6.848;2022-12-29T12:14:27;3.78;;;1.17;;
53505;SDS011;39388;50.936;6.848;2022-12-29T12:17:05;1.90;;;1.20;;
53505;SDS011;39388;50.936;6.848;2022-12-29T12:19:46;5.13;;;1.40;;
53505;SDS011;39388;50.936;6.848;2022-12-29T12:27:56;4.30;;;1.63;;
53505;SDS011;39388;50.936;6.848;2022-12-29T12:50:52;4.25;;;1.30;;
53505;SDS011;39388;50.936;6.848;2022-12-29T12:53:49;4.63;;;1.60;;
53505;SDS011;39388;50.936;6.848;2022-12-29T13:18:39;4.10;;;1.48;;
53505;SDS011;39388;50.936;6.848;2022-12-29T13:26:59;4.43;;;1.00;;
53505;SDS011;39388;50.936;6.848;2022-12-29T13:29:42;5.45;;;1.77;;
53505;SDS011;39388;50.936;6.848;2022-12-29T13:32:34;2.70;;;1.27;;
53505;SDS011;39388;50.936;6.848;2022-12-29T13:37:54;6.70;;;1.40;;
53505;SDS011;39388;50.936;6.848;2022-12-29T13:40:32;4.95;;;1.30;;
53505;SDS011;39388;50.936;6.848;2022-12-29T13:43:06;5.20;;;1.73;;
53505;SDS011;39388;50.936;6.848;2022-12-29T13:45:37;3.20;;;1.08;;
53505;SDS011;39388;50.936;6.848;2022-12-29T13:50:41;4.75;;;1.75;;
53505;SDS011;39388;50.936;6.848;2022-12-29T13:56:33;3.95;;;1.50;;
53505;SDS011;39388;50.936;6.848;2022-12-29T14:07:48;2.00;;;1.30;;
53505;SDS011;39388;50.936;6.848;2022-12-29T14:10:28;2.85;;;1.30;;
53505;SDS011;39388;50.936;6.848;2022-12-29T14:13:12;3.40;;;1.38;;
53505;SDS011;39388;50.936;6.848;2022-12-29T14:15:46;3.78;;;1.40;;
53505;SDS011;39388;50.936;6.848;2022-12-29T14:18:26;4.53;;;1.40;;
53505;SDS011;39388;50.936;6.848;2022-12-29T14:21:00;2.63;;;1.20;;
53505;SDS011;39388;50.936;6.848;2022-12-29T14:23:49;4.95;;;1.70;;
53505;SDS011;39388;50.936;6.848;2022-12-29T14:29:22;4.10;;;1.42;;
53505;SDS011;39388;50.936;6.848;2022-12-29T14:34:55;4.55;;;1.50;;
53505;SDS011;39388;50.936;6.848;2022-12-29T14:37:30;4.17;;;1.60;;
53505;SDS011;39388;50.936;6.848;2022-12-29T14:40:18;5.05;;;1.30;;
53505;SDS011;39388;50.936;6.848;2022-12-29T14:42:59;2.70;;;1.35;;
53505;SDS011;39388;50.936;6.848;2022-12-29T14:45:29;2.80;;;1.30;;
53505;SDS011;39388;50.936;6.848;2022-12-29T14:48:00;4.45;;;1.52;;
53505;SDS011;39388;50.936;6.848;2022-12-29T14:53:32;4.20;;;1.30;;
53505;SDS011;39388;50.936;6.848;2022-12-29T14:56:13;3.90;;;1.40;;
53505;SDS011;39388;50.936;6.848;2022-12-29T14:58:53;3.72;;;1.77;;
53505;SDS011;39388;50.936;6.848;2022-12-29T15:01:26;4.03;;;1.48;;
53505;SDS011;39388;50.936;6.848;2022-12-29T15:04:17;5.22;;;1.50;;
53505;SDS011;39388;50.936;6.848;2022-12-29T15:06:50;4.25;;;1.27;;
53505;SDS011;39388;50.936;6.848;2022-12-29T15:12:19;3.65;;;1.50;;
53505;SDS011;39388;50.936;6.848;2022-12-29T15:17:24;3.50;;;1.55;;
53505;SDS011;39388;50.936;6.848;2022-12-29T15:19:59;2.13;;;1.42;;
53505;SDS011;39388;50.936;6.848;2022-12-29T15:22:31;3.20;;;1.50;;
53505;SDS011;39388;50.936;6.848;2022-12-29T15:25:01;3.47;;;1.35;;
53505;SDS011;39388;50.936;6.848;2022-12-29T15:27:32;3.17;;;1.50;;
53505;SDS011;39388;50.936;6.848;2022-12-29T15:30:03;5.63;;;1.70;;
53505;SDS011;39388;50.936;6.848;2022-12-29T15:32:40;3.35;;;1.70;;
53505;SDS011;39388;50.936;6.848;2022-12-29T15:38:14;5.13;;;1.40;;
53505;SDS011;39388;50.936;6.848;2022-12-29T15:40:46;2.72;;;1.80;;
53505;SDS011;39388;50.936;6.848;2022-12-29T15:46:10;9.95;;;2.28;;
53505;SDS011;39388;50.936;6.848;2022-12-29T15:48:41;4.50;;;1.58;;
53505;SDS011;39388;50.936;6.848;2022-12-29T15:51:19;3.13;;;1.73;;
53505;SDS011;39388;50.936;6.848;2022-12-29T15:53:55;2.75;;;1.45;;
53505;SDS011;39388;50.936;6.848;2022-12-29T15:56:28;3.50;;;1.48;;
53505;SDS011;39388;50.936;6.848;2022-12-29T15:59:00;5.63;;;1.63;;
53505;SDS011;39388;50.936;6.848;2022-12-29T16:01:32;5.72;;;1.83;;
53505;SDS011;39388;50.936;6.848;2022-12-29T16:04:06;4.45;;;1.60;;
53505;SDS011;39388;50.936;6.848;2022-12-29T16:06:39;2.88;;;1.80;;
53505;SDS011;39388;50.936;6.848;2022-12-29T16:09:33;3.13;;;1.40;;
53505;SDS011;39388;50.936;6.848;2022-12-29T16:12:06;3.88;;;1.27;;
53505;SDS011;39388;50.936;6.848;2022-12-29T16:14:46;4.07;;;2.13;;
53505;SDS011;39388;50.936;6.848;2022-12-29T16:17:20;2.65;;;1.58;;
53505;SDS011;39388;50.936;6.848;2022-12-29T16:19:54;2.42;;;1.67;;
53505;SDS011;39388;50.936;6.848;2022-12-29T16:22:38;4.53;;;1.67;;
53505;SDS011;39388;50.936;6.848;2022-12-29T16:25:29;3.10;;;1.40;;
53505;SDS011;39388;50.936;6.848;2022-12-29T16:28:14;6.75;;;1.83;;
53505;SDS011;39388;50.936;6.848;2022-12-29T16:33:55;7.45;;;2.25;;
53505;SDS011;39388;50.936;6.848;2022-12-29T16:36:27;3.13;;;1.40;;
53505;SDS011;39388;50.936;6.848;2022-12-29T16:41:45;2.67;;;1.77;;
53505;SDS011;39388;50.936;6.848;2022-12-29T16:47:16;4.10;;;1.80;;
53505;SDS011;39388;50.936;6.848;2022-12-29T16:49:42;6.22;;;1.65;;
53505;SDS011;39388;50.936;6.848;2022-12-29T16:52:21;6.40;;;2.30;;
53505;SDS011;39388;50.936;6.848;2022-12-29T16:54:55;6.45;;;2.72;;
53505;SDS011;39388;50.936;6.848;2022-12-29T16:57:31;3.10;;;1.55;;
53505;SDS011;39388;50.936;6.848;2022-12-29T17:00:05;5.88;;;1.92;;
53505;SDS011;39388;50.936;6.848;2022-12-29T17:02:37;5.75;;;1.70;;
53505;SDS011;39388;50.936;6.848;2022-12-29T17:05:15;5.20;;;1.92;;
53505;SDS011;39388;50.936;6.848;2022-12-29T17:07:46;4.45;;;1.90;;
53505;SDS011;39388;50.936;6.848;2022-12-29T17:10:17;4.18;;;1.90;;
53505;SDS011;39388;50.936;6.848;2022-12-29T17:12:47;4.63;;;1.85;;
53505;SDS011;39388;50.936;6.848;2022-12-29T17:15:24;5.60;;;2.10;;
53505;SDS011;39388;50.936;6.848;2022-12-29T17:17:57;8.68;;;2.38;;
53505;SDS011;39388;50.936;6.848;2022-12-29T17:20:30;5.05;;;1.98;;
53505;SDS011;39388;50.936;6.848;2022-12-29T17:23:01;5.80;;;2.05;;
53505;SDS011;39388;50.936;6.848;2022-12-29T17:25:32;5.05;;;2.40;;
53505;SDS011;39388;50.936;6.848;2022-12-29T17:31:03;6.15;;;2.22;;
53505;SDS011;39388;50.936;6.848;2022-12-29T17:33:36;5.15;;;2.88;;
53505;SDS011;39388;50.936;6.848;2022-12-29T17:36:10;6.20;;;2.97;;
53505;SDS011;39388;50.936;6.848;2022-12-29T17:38:40;6.20;;;2.37;;
53505;SDS011;39388;50.936;6.848;2022-12-29T17:41:11;6.18;;;2.10;;
53505;SDS011;39388;50.936;6.848;2022-12-29T17:43:43;10.32;;;2.25;;
53505;SDS011;39388;50.936;6.848;2022-12-29T17:46:14;6.03;;;2.08;;
53505;SDS011;39388;50.936;6.848;2022-12-29T17:48:45;6.63;;;1.90;;
53505;SDS011;39388;50.936;6.848;2022-12-29T17:51:15;4.97;;;2.10;;
53505;SDS011;39388;50.936;6.848;2022-12-29T17:53:46;4.32;;;1.90;;
53505;SDS011;39388;50.936;6.848;2022-12-29T17:56:17;5.35;;;2.13;;
53505;SDS011;39388;50.936;6.848;2022-12-29T17:58:48;9.60;;;3.30;;
53505;SDS011;39388;50.936;6.848;2022-12-29T18:01:19;5.13;;;2.30;;
53505;SDS011;39388;50.936;6.848;2022-12-29T18:03:50;6.07;;;2.60;;
53505;SDS011;39388;50.936;6.848;2022-12-29T18:06:21;4.53;;;2.22;;
53505;SDS011;39388;50.936;6.848;2022-12-29T18:08:51;6.25;;;2.85;;
53505;SDS011;39388;50.936;6.848;2022-12-29T18:11:23;4.53;;;2.25;;
53505;SDS011;39388;50.936;6.848;2022-12-29T18:13:55;6.75;;;2.00;;
53505;SDS011;39388;50.936;6.848;2022-12-29T18:16:26;5.72;;;2.78;;
53505;SDS011;39388;50.936;6.848;2022-12-29T18:18:56;3.90;;;1.85;;
53505;SDS011;39388;50.936;6.848;2022-12-29T18:21:26;4.35;;;2.10;;